Time;durP1;ratioP1;P1;durP2;ratioP2;P2;SDS_P1;SDS_P2;PMS_P1;PMS_P2;Temp;Humidity;BMP_temperature;BMP_pressure;BME280_temperature;BME280_humidity;BME280_pressure;Samples;Min_cycle;Max_cycle;Signal;HPM_P1;HPM_P2
2022/12/31 00:02:06;;;;;;;0.60;0.40;;;;;;;10.91;100.00;99632.16;5223740;28;20028;-75
2022/12/31 00:04:36;;;;;;;1.10;0.50;;;;;;;10.87;100.00;99634.09;5227278;28;20051;-75
2022/12/31 00:07:07;;;;;;;2.25;0.40;;;;;;;10.79;100.00;99635.41;5230995;28;20025;-74
2022/12/31 00:09:37;;;;;;;0.50;0.35;;;;;;;10.77;100.00;99632.03;5215749;28;20440;-75
2022/12/31 00:12:07;;;;;;;0.30;0.30;;;;;;;10.77;100.00;99629.41;5229547;28;20020;-76
2022/12/31 00:14:38;;;;;;;0.60;0.50;;;;;;;10.84;100.00;99638.66;5222968;28;20071;-74
2022/12/31 00:17:08;;;;;;;0.63;0.40;;;;;;;10.79;100.00;99640.63;5224901;28;20090;-75
2022/12/31 00:19:39;;;;;;;0.30;0.30;;;;;;;10.83;100.00;99640.41;5212464;28;20482;-75
2022/12/31 00:22:09;;;;;;;0.45;0.40;;;;;;;10.82;100.00;99635.28;5223342;28;20316;-75
2022/12/31 00:24:39;;;;;;;0.98;0.57;;;;;;;10.79;100.00;99651.94;5223869;28;20032;-76
2022/12/31 00:27:09;;;;;;;0.70;0.50;;;;;;;10.86;100.00;99647.25;5230896;28;20436;-73
2022/12/31 00:29:40;;;;;;;0.80;0.55;;;;;;;10.79;100.00;99651.94;5226621;28;20055;-76
2022/12/31 00:32:10;;;;;;;0.40;0.30;;;;;;;10.95;100.00;99647.63;5227015;28;20029;-75
2022/12/31 00:37:13;;;;;;;0.88;0.40;;;;;;;10.86;100.00;99642.03;5176307;28;20049;-72
2022/12/31 00:39:43;;;;;;;0.88;0.40;;;;;;;10.97;100.00;99644.91;5179676;28;20026;-73
2022/12/31 00:42:13;;;;;;;0.95;0.50;;;;;;;11.00;100.00;99655.22;5181318;28;20034;-73
2022/12/31 00:44:44;;;;;;;0.85;0.60;;;;;;;11.05;100.00;99661.88;5182222;28;20430;-73
2022/12/31 00:47:14;;;;;;;1.13;0.35;;;;;;;11.07;100.00;99658.28;5186732;28;20025;-72
2022/12/31 00:49:44;;;;;;;0.40;0.32;;;;;;;11.12;100.00;99648.41;5191799;28;20025;-73
2022/12/31 00:52:17;;;;;;;0.60;0.50;;;;;;;11.18;100.00;99650.72;5189205;28;20037;-72
2022/12/31 00:54:47;;;;;;;0.85;0.45;;;;;;;11.22;100.00;99652.25;5190211;28;20411;-72
2022/12/31 00:57:17;;;;;;;1.02;0.50;;;;;;;11.13;100.00;99655.34;5191006;28;20275;-72
2022/12/31 00:59:47;;;;;;;0.57;0.40;;;;;;;11.18;100.00;99648.13;5184304;28;20029;-73
2022/12/31 01:02:18;;;;;;;0.60;0.32;;;;;;;11.20;100.00;99659.34;5181627;28;20538;-73
2022/12/31 01:04:48;;;;;;;0.40;0.40;;;;;;;11.31;100.00;99656.97;5186293;28;20022;-72
2022/12/31 01:07:18;;;;;;;0.63;0.40;;;;;;;11.22;100.00;99648.78;5191603;28;20044;-72
2022/12/31 01:09:49;;;;;;;0.45;0.40;;;;;;;11.22;100.00;99657.47;5190242;28;20037;-73
2022/12/31 01:12:19;;;;;;;0.63;0.32;;;;;;;11.23;100.00;99664.41;5188678;28;20033;-73
2022/12/31 01:14:49;;;;;;;2.20;0.40;;;;;;;11.23;100.00;99664.41;5183117;28;20477;-72
2022/12/31 01:17:20;;;;;;;1.50;0.57;;;;;;;11.14;100.00;99657.00;5177365;28;20029;-72
2022/12/31 01:19:50;;;;;;;0.50;0.40;;;;;;;11.23;100.00;99661.78;5177879;28;20701;-72
2022/12/31 01:22:21;;;;;;;0.30;0.30;;;;;;;11.22;100.00;99657.47;5183040;28;20030;-72
2022/12/31 01:24:51;;;;;;;0.50;0.40;;;;;;;11.11;100.00;99665.03;5186158;28;20041;-73
2022/12/31 01:27:21;;;;;;;0.30;0.30;;;;;;;11.21;100.00;99665.38;5187805;28;20029;-72
2022/12/31 01:29:51;;;;;;;0.30;0.28;;;;;;;11.13;100.00;99671.03;5184188;28;20483;-73
2022/12/31 01:32:22;;;;;;;0.82;0.30;;;;;;;11.29;100.00;99663.22;5182203;28;20068;-73
2022/12/31 01:34:52;;;;;;;0.30;0.20;;;;;;;11.25;100.00;99666.94;5191281;28;20065;-73
2022/12/31 01:37:22;;;;;;;2.20;0.47;;;;;;;11.27;100.00;99681.59;5190372;28;20116;-73
2022/12/31 01:39:52;;;;;;;0.75;0.38;;;;;;;11.39;100.00;99680.13;5190485;28;20072;-73
2022/12/31 01:42:23;;;;;;;0.55;0.50;;;;;;;11.30;100.00;99691.91;5187604;28;20115;-73
2022/12/31 01:44:54;;;;;;;0.85;0.43;;;;;;;11.38;100.00;99686.28;5165755;28;20399;-72
2022/12/31 01:47:48;;;;;;;1.10;0.60;;;;;;;11.36;100.00;99693.34;5187635;28;20029;-73
2022/12/31 01:50:24;;;;;;;3.03;0.70;;;;;;;11.47;100.00;99688.41;5186089;28;20041;-73
2022/12/31 01:52:58;;;;;;;1.15;0.52;;;;;;;11.58;100.00;99679.09;5191800;28;20479;-72
2022/12/31 01:55:36;;;;;;;0.85;0.50;;;;;;;11.55;100.00;99681.84;5172700;28;20056;-73
2022/12/31 01:58:13;;;;;;;1.35;0.57;;;;;;;11.59;100.00;99662.47;5185669;28;20041;-73
2022/12/31 02:00:44;;;;;;;0.95;0.52;;;;;;;11.63;100.00;99668.38;5177610;28;20091;-73
2022/12/31 02:03:14;;;;;;;0.57;0.40;;;;;;;11.63;100.00;99668.38;5187659;28;20461;-73
2022/12/31 02:05:52;;;;;;;0.50;0.43;;;;;;;11.51;100.00;99674.22;5190718;28;20111;-73
2022/12/31 02:08:22;;;;;;;2.25;0.50;;;;;;;11.60;100.00;99661.53;5189153;28;20495;-73
2022/12/31 02:10:52;;;;;;;0.60;0.40;;;;;;;11.57;100.00;99666.94;5191688;28;20129;-73
2022/12/31 02:13:23;;;;;;;1.20;0.32;;;;;;;11.63;100.00;99668.38;5186422;28;20036;-73
2022/12/31 02:16:20;;;;;;;0.68;0.45;;;;;;;11.70;100.00;99661.88;5188160;28;20087;-73
2022/12/31 02:18:58;;;;;;;;;;;;;;;11.55;100.00;99668.75;5184133;28;20092;-73
2022/12/31 02:21:47;;;;;;;1.02;0.43;;;;;;;11.63;100.00;99657.91;5186012;28;19919;-73
2022/12/31 02:24:44;;;;;;;0.55;0.40;;;;;;;11.74;100.00;99653.78;5181890;28;20052;-73
2022/12/31 02:27:33;;;;;;;1.75;0.40;;;;;;;11.77;100.00;99655.41;5190221;28;20513;-73
2022/12/31 02:30:13;;;;;;;0.55;0.45;;;;;;;11.76;100.00;99649.31;5183613;28;20068;-73
2022/12/31 02:32:49;;;;;;;1.45;0.40;;;;;;;11.75;100.00;99647.63;5181361;28;20376;-73
2022/12/31 02:35:23;;;;;;;1.35;0.60;;;;;;;11.77;100.00;99643.13;5190790;28;20044;-73
2022/12/31 02:38:00;;;;;;;2.15;0.47;;;;;;;11.79;100.00;99646.50;5188977;28;20030;-73
2022/12/31 02:40:33;;;;;;;1.88;0.55;;;;;;;11.85;100.00;99640.09;5173292;28;20042;-72
2022/12/31 02:43:04;;;;;;;1.13;0.50;;;;;;;11.86;100.00;99632.16;5188160;28;20033;-73
2022/12/31 02:45:41;;;;;;;0.95;0.60;;;;;;;11.92;100.00;99633.59;5190136;28;20503;-73
2022/12/31 02:48:43;;;;;;;0.80;0.60;;;;;;;11.92;100.00;99633.59;5187582;28;20022;-73
2022/12/31 02:51:29;;;;;;;0.82;0.50;;;;;;;12.01;100.00;99633.94;5166788;28;20504;-73
2022/12/31 02:54:27;;;;;;;0.85;0.43;;;;;;;12.11;100.00;99615.91;5185797;28;20640;-72
2022/12/31 02:57:12;;;;;;;1.05;0.50;;;;;;;12.10;100.00;99615.06;5188425;28;20036;-72
2022/12/31 03:02:49;;;;;;;1.02;0.50;;;;;;;12.15;100.00;99613.00;5170866;28;20080;-73
2022/12/31 03:05:22;;;;;;;0.90;0.57;;;;;;;12.16;100.00;99606.03;5182327;28;20029;-73
2022/12/31 03:07:53;;;;;;;0.45;0.35;;;;;;;12.29;100.00;99610.44;5186810;28;20041;-72
2022/12/31 03:10:23;;;;;;;0.50;0.40;;;;;;;12.32;100.00;99602.41;5187098;28;20068;-73
2022/12/31 03:12:54;;;;;;;0.90;0.40;;;;;;;12.34;100.00;99605.81;5188194;28;20040;-73
2022/12/31 03:15:27;;;;;;;1.27;0.60;;;;;;;12.31;100.00;99595.47;5192585;28;20067;-73
2022/12/31 03:18:06;;;;;;;2.50;1.13;;;;;;;12.29;100.00;99586.03;5189023;28;20410;-73
2022/12/31 03:23:37;;;;;;;0.77;0.32;;;;;;;12.46;100.00;99593.78;5188040;28;20560;-73
2022/12/31 03:26:10;;;;;;;0.40;0.32;;;;;;;12.43;100.00;99592.16;5186054;28;20033;-72
2022/12/31 03:28:46;;;;;;;0.55;0.30;;;;;;;12.54;100.00;99608.09;5191536;28;20502;-73
2022/12/31 03:31:16;;;;;;;0.25;0.20;;;;;;;12.60;100.00;99607.75;5182103;28;20029;-72
2022/12/31 03:33:47;;;;;;;0.95;0.20;;;;;;;12.76;100.00;99594.53;5187811;28;20433;-73
2022/12/31 03:36:17;;;;;;;0.35;0.10;;;;;;;12.71;100.00;99588.75;5186580;28;20038;-72
2022/12/31 03:38:47;;;;;;;0.43;0.20;;;;;;;12.72;100.00;99585.19;5188066;28;20504;-73
2022/12/31 03:41:17;;;;;;;0.22;0.20;;;;;;;12.72;100.00;99591.28;5193196;28;20034;-73
2022/12/31 03:43:48;;;;;;;0.25;0.20;;;;;;;12.64;100.00;99583.03;5192051;28;20080;-73
2022/12/31 03:46:18;;;;;;;0.10;0.10;;;;;;;12.57;100.00;99576.47;5194166;28;20465;-73
2022/12/31 03:48:48;;;;;;;0.10;0.10;;;;;;;12.59;100.00;99569.34;5191180;28;20029;-73
2022/12/31 03:51:19;;;;;;;0.28;0.10;;;;;;;12.47;100.00;99567.44;5192916;28;20510;-72
2022/12/31 03:53:49;;;;;;;0.80;0.20;;;;;;;12.42;100.00;99573.88;5191625;28;20274;-72
2022/12/31 03:56:19;;;;;;;0.10;0.10;;;;;;;12.41;100.00;99570.44;5190464;28;20038;-72
2022/12/31 03:58:49;;;;;;;0.43;0.20;;;;;;;12.31;100.00;99569.28;5190625;28;20084;-72
2022/12/31 04:01:23;;;;;;;0.55;0.20;;;;;;;12.27;100.00;99567.78;5188198;28;20026;-72
2022/12/31 04:03:53;;;;;;;1.40;0.10;;;;;;;12.41;100.00;99562.59;5192150;28;20030;-72
2022/12/31 04:06:23;;;;;;;0.10;0.10;;;;;;;12.26;100.00;99566.09;5193285;28;20398;-72
2022/12/31 04:08:54;;;;;;;1.58;0.10;;;;;;;12.21;100.00;99557.69;5191953;28;20034;-72
2022/12/31 04:11:24;;;;;;;0.10;0.10;;;;;;;12.31;100.00;99553.56;5192368;28;20495;-72
2022/12/31 04:13:54;;;;;;;0.20;0.20;;;;;;;12.26;100.00;99557.41;5187125;28;20029;-71
2022/12/31 04:16:25;;;;;;;0.32;0.30;;;;;;;12.23;100.00;99550.56;5176186;28;20084;-72
2022/12/31 04:18:55;;;;;;;2.00;0.90;;;;;;;12.10;100.00;99554.81;5191390;28;20491;-72
2022/12/31 04:21:25;;;;;;;0.10;0.10;;;;;;;12.21;100.00;99552.44;5187560;28;20475;-72
2022/12/31 04:23:55;;;;;;;0.10;0.10;;;;;;;12.23;100.00;99536.63;5188330;28;20032;-71
2022/12/31 04:26:26;;;;;;;0.25;0.10;;;;;;;12.32;100.00;99529.06;5170376;28;20025;-72
2022/12/31 04:28:56;;;;;;;0.10;0.10;;;;;;;12.25;100.00;99525.13;5189255;28;20026;-72
2022/12/31 04:31:27;;;;;;;0.47;0.10;;;;;;;12.29;100.00;99523.19;5181264;28;20022;-72
2022/12/31 04:33:57;;;;;;;0.20;0.10;;;;;;;12.33;100.00;99509.78;5186488;28;20056;-72
2022/12/31 04:36:27;;;;;;;0.38;0.10;;;;;;;12.23;100.00;99513.91;5181899;28;20459;-73
2022/12/31 04:38:57;;;;;;;0.10;0.10;;;;;;;12.27;100.00;99514.56;5171053;28;20030;-72
2022/12/31 04:41:28;;;;;;;0.77;0.20;;;;;;;12.35;100.00;99510.56;5190556;28;20140;-72
2022/12/31 04:43:59;;;;;;;0.38;0.17;;;;;;;12.43;100.00;99510.94;5183487;28;20475;-71
2022/12/31 04:46:32;;;;;;;0.10;0.10;;;;;;;12.45;100.00;99509.06;5186573;28;20038;-72
2022/12/31 04:49:03;;;;;;;0.15;0.15;;;;;;;12.67;100.00;99506.81;5171698;28;20025;-72
2022/12/31 04:51:33;;;;;;;0.08;0.08;;;;;;;12.76;100.00;99502.78;5190374;28;20060;-72
2022/12/31 04:54:04;;;;;;;0.77;0.10;;;;;;;12.93;100.00;99492.13;5190089;28;20026;-71
2022/12/31 04:56:35;;;;;;;1.10;0.10;;;;;;;12.96;100.00;99495.41;5188863;28;20038;-72
2022/12/31 04:59:06;;;;;;;0.28;0.20;;;;;;;12.90;100.00;99501.03;5188438;28;20399;-72
2022/12/31 05:01:37;;;;;;;0.10;0.10;;;;;;;13.00;100.00;99491.66;5180755;28;20164;-72
2022/12/31 05:04:07;;;;;;;1.52;0.10;;;;;;;13.12;100.00;99490.91;5192752;28;20033;-72
2022/12/31 05:06:37;;;;;;;0.00;0.00;;;;;;;13.22;100.00;99486.75;5188515;28;20439;-72
2022/12/31 05:09:08;;;;;;;0.30;0.15;;;;;;;13.19;100.00;99484.31;5174738;28;20045;-72
2022/12/31 05:11:38;;;;;;;0.05;0.05;;;;;;;13.27;100.00;99476.81;5183947;28;20109;-72
2022/12/31 05:14:09;;;;;;;0.10;0.10;;;;;;;13.24;100.00;99475.22;5181890;28;20034;-71
2022/12/31 05:16:40;;;;;;;0.28;0.17;;;;;;;13.19;100.00;99487.78;5187396;28;20106;-72
2022/12/31 05:19:10;;;;;;;0.20;0.10;;;;;;;13.30;100.00;99479.22;5188964;28;20050;-71
2022/12/31 05:21:40;;;;;;;0.65;0.10;;;;;;;13.33;100.00;99463.28;5180212;28;20041;-71
2022/12/31 05:24:10;;;;;;;0.15;0.10;;;;;;;13.43;100.00;99459.13;5187256;28;20368;-72
2022/12/31 05:26:41;;;;;;;0.73;0.10;;;;;;;13.37;100.00;99465.63;5188611;28;20322;-72
2022/12/31 05:29:11;;;;;;;0.15;0.10;;;;;;;13.47;100.00;99464.09;5183332;28;20121;-72
2022/12/31 05:31:41;;;;;;;0.13;0.03;;;;;;;13.60;100.00;99454.47;5182194;28;20391;-72
2022/12/31 05:34:12;;;;;;;1.15;0.10;;;;;;;13.70;100.00;99459.94;5183602;28;20052;-72
2022/12/31 05:36:42;;;;;;;0.20;0.10;;;;;;;13.70;100.00;99465.19;5188688;28;20506;-72
2022/12/31 05:39:12;;;;;;;1.02;0.15;;;;;;;13.76;100.00;99463.00;5193470;28;20034;-72
2022/12/31 05:41:42;;;;;;;2.95;0.20;;;;;;;13.71;100.00;99462.47;5190589;28;20129;-72
2022/12/31 05:44:13;;;;;;;0.52;0.10;;;;;;;13.77;100.00;99472.56;5181756;28;20049;-71
2022/12/31 05:46:43;;;;;;;0.25;0.10;;;;;;;13.81;100.00;99473.22;5166724;28;20547;-72
2022/12/31 05:49:13;;;;;;;0.20;0.10;;;;;;;13.77;100.00;99474.38;5191394;28;20037;-72
2022/12/31 05:51:44;;;;;;;2.08;0.28;;;;;;;13.85;100.00;99479.94;5188306;28;20487;-72
2022/12/31 05:54:14;;;;;;;0.10;0.05;;;;;;;13.86;100.00;99485.09;5190284;28;20052;-72
2022/12/31 05:56:44;;;;;;;0.22;0.10;;;;;;;13.77;100.00;99485.69;5187814;28;20042;-72
2022/12/31 05:59:14;;;;;;;0.00;0.00;;;;;;;13.85;100.00;99488.69;5186818;28;20056;-72
2022/12/31 06:01:45;;;;;;;0.40;0.10;;;;;;;13.82;100.00;99496.75;5180376;28;20048;-72
2022/12/31 06:04:15;;;;;;;0.85;0.20;;;;;;;13.86;100.00;99505.25;5172831;28;20388;-72
2022/12/31 06:06:46;;;;;;;0.60;0.13;;;;;;;13.86;100.00;99502.63;5191011;28;20037;-72
2022/12/31 06:09:17;;;;;;;0.40;0.20;;;;;;;13.79;100.00;99498.75;5187614;28;20104;-72
2022/12/31 06:11:47;;;;;;;0.98;0.20;;;;;;;13.84;100.00;99509.78;5189814;28;20037;-71
2022/12/31 06:14:17;;;;;;;0.17;0.10;;;;;;;13.85;100.00;99514.94;5169023;28;20020;-72
2022/12/31 06:16:49;;;;;;;0.05;0.05;;;;;;;13.82;100.00;99530.06;5185907;28;20081;-71
2022/12/31 06:19:19;;;;;;;0.15;0.10;;;;;;;13.94;100.00;99547.66;5187694;28;20104;-72
2022/12/31 06:21:50;;;;;;;0.90;0.40;;;;;;;13.95;100.00;99552.78;5166238;28;20032;-71
2022/12/31 06:24:20;;;;;;;0.32;0.20;;;;;;;13.94;100.00;99566.84;5190503;28;20021;-72
2022/12/31 06:26:50;;;;;;;1.45;0.40;;;;;;;13.84;100.00;99570.19;5180698;28;20407;-72
2022/12/31 06:29:21;;;;;;;0.52;0.30;;;;;;;13.64;100.00;99583.75;5181419;28;20061;-73
2022/12/31 06:31:51;;;;;;;0.50;0.40;;;;;;;13.39;100.00;99583.63;5181440;28;20667;-72
2022/12/31 06:34:21;;;;;;;0.50;0.32;;;;;;;13.35;100.00;99603.09;5181152;28;20681;-71
2022/12/31 06:36:51;;;;;;;1.08;0.43;;;;;;;13.20;100.00;99604.09;5170974;23;20470;-78
2022/12/31 06:39:22;;;;;;;0.40;0.30;;;;;;;13.10;100.00;99614.28;5183334;28;20399;-76
2022/12/31 06:41:53;;;;;;;0.88;0.40;;;;;;;13.01;100.00;99614.00;5169517;28;20033;-78
2022/12/31 06:44:23;;;;;;;0.47;0.30;;;;;;;13.02;100.00;99620.91;5185009;28;20021;-77
2022/12/31 06:46:53;;;;;;;1.30;0.40;;;;;;;12.90;100.00;99624.28;5174798;28;20434;-77
2022/12/31 06:49:24;;;;;;;0.75;0.40;;;;;;;12.87;100.00;99632.31;5184116;28;20041;-78
2022/12/31 06:51:54;;;;;;;1.65;0.40;;;;;;;12.70;100.00;99631.63;5192162;28;20021;-77
2022/12/31 06:54:24;;;;;;;0.82;0.38;;;;;;;12.62;100.00;99637.31;5189666;28;20036;-78
2022/12/31 06:56:55;;;;;;;2.55;1.02;;;;;;;12.65;100.00;99641.53;5184006;28;20546;-78
2022/12/31 06:59:28;;;;;;;1.35;0.47;;;;;;;12.56;100.00;99636.81;5186936;28;20022;-76
2022/12/31 07:02:36;;;;;;;0.90;0.60;;;;;;;12.48;100.00;99644.31;5187472;28;20037;-78
2022/12/31 07:05:08;;;;;;;1.83;0.40;;;;;;;12.48;100.00;99637.28;5151437;28;20129;-77
2022/12/31 07:07:59;;;;;;;0.57;0.40;;;;;;;12.42;100.00;99644.63;5176429;28;20091;-77
2022/12/31 07:10:50;;;;;;;0.68;0.55;;;;;;;12.32;100.00;99635.63;5165592;28;20033;-77
2022/12/31 07:13:42;;;;;;;1.27;0.60;;;;;;;12.31;100.00;99626.91;5161587;28;20116;-77
2022/12/31 07:16:43;;;;;;;1.70;0.73;;;;;;;12.17;100.00;99628.66;5181857;28;20031;-77
2022/12/31 07:19:19;;;;;;;1.15;0.90;;;;;;;12.10;100.00;99632.56;5183501;28;20041;-78
2022/12/31 07:21:52;;;;;;;0.75;0.63;;;;;;;12.08;100.00;99630.03;5175023;28;20044;-77
2022/12/31 07:24:23;;;;;;;1.30;0.57;;;;;;;12.11;100.00;99624.59;5173898;28;20534;-77
2022/12/31 07:27:17;;;;;;;0.73;0.40;;;;;;;12.11;100.00;99616.75;5171464;28;20061;-79
2022/12/31 07:29:53;;;;;;;0.32;0.30;;;;;;;12.11;100.00;99608.88;5185676;28;20076;-76
2022/12/31 07:32:23;;;;;;;1.00;0.50;;;;;;;12.10;100.00;99625.53;5181735;28;20104;-76
2022/12/31 07:35:29;;;;;;;0.70;0.30;;;;;;;12.13;100.00;99620.13;5168876;28;20122;-77
2022/12/31 07:38:28;;;;;;;0.35;0.30;;;;;;;12.03;100.00;99613.72;5181669;28;20029;-77
2022/12/31 07:41:16;;;;;;;0.30;0.30;;;;;;;12.13;100.00;99614.88;5185162;28;20034;-79
2022/12/31 07:43:53;;;;;;;0.82;0.30;;;;;;;12.10;100.00;99620.31;5178122;28;20034;-78
2022/12/31 07:46:42;;;;;;;2.10;0.40;;;;;;;12.14;100.00;99608.72;5180699;28;20085;-77
2022/12/31 07:49:12;;;;;;;1.25;0.73;;;;;;;12.25;100.00;99603.72;5187786;28;20108;-80
2022/12/31 07:51:43;;;;;;;1.98;0.40;;;;;;;12.27;100.00;99601.84;5192337;28;20392;-79
2022/12/31 07:54:14;;;;;;;1.77;0.43;;;;;;;12.42;100.00;99598.34;5187837;28;20030;-80
2022/12/31 07:56:45;;;;;;;1.27;0.52;;;;;;;12.57;100.00;99592.19;5183724;28;20037;-79
2022/12/31 07:59:49;;;;;;;0.77;0.32;;;;;;;12.61;100.00;99593.69;5188484;28;20030;-79
2022/12/31 08:03:04;;;;;;;0.80;0.30;;;;;;;12.78;100.00;99596.16;5184304;28;20084;-78
2022/12/31 08:05:50;;;;;;;1.52;0.30;;;;;;;12.78;100.00;99606.63;5163274;28;20563;-79
2022/12/31 08:08:56;;;;;;;0.45;0.20;;;;;;;12.93;100.00;99604.91;5187127;28;20484;-79
2022/12/31 08:11:40;;;;;;;0.77;0.38;;;;;;;12.88;100.00;99600.75;5119508;28;20451;-79
2022/12/31 08:14:13;;;;;;;0.80;0.22;;;;;;;12.96;100.00;99608.19;5188244;28;20025;-80
2022/12/31 08:16:44;;;;;;;0.52;0.30;;;;;;;13.04;100.00;99613.81;5182183;28;20140;-79
2022/12/31 08:19:31;;;;;;;0.60;0.30;;;;;;;13.12;100.00;99614.19;5180300;28;20509;-79
2022/12/31 08:22:29;;;;;;;1.17;0.22;;;;;;;13.17;100.00;99617.38;5189481;28;20140;-80
2022/12/31 08:25:23;;;;;;;1.05;0.38;;;;;;;13.18;100.00;99626.91;5189487;28;20033;-79
2022/12/31 08:28:04;;;;;;;1.10;0.30;;;;;;;13.25;100.00;99629.06;5184550;28;20113;-78
2022/12/31 08:30:53;;;;;;;0.20;0.20;;;;;;;13.42;100.00;99635.94;5184778;28;20037;-80
2022/12/31 08:33:31;;;;;;;0.95;0.20;;;;;;;13.51;100.00;99627.47;5192248;28;20151;-79
2022/12/31 08:36:42;;;;;;;2.45;0.30;;;;;;;13.52;100.00;99632.63;5186769;28;20037;-79
2022/12/31 08:39:31;;;;;;;1.73;0.40;;;;;;;13.59;100.00;99623.41;5179365;28;20529;-80
2022/12/31 08:42:12;;;;;;;1.10;0.50;;;;;;;13.60;100.00;99642.66;5176776;28;20045;-79
2022/12/31 08:44:52;;;;;;;2.67;0.60;;;;;;;13.66;100.00;99631.75;5179165;28;20032;-79
2022/12/31 08:47:34;;;;;;;0.63;0.40;;;;;;;13.69;100.00;99626.31;5187009;28;20044;-80
2022/12/31 08:50:06;;;;;;;1.67;0.40;;;;;;;13.79;100.00;99635.31;5184515;28;20021;-79
2022/12/31 08:52:36;;;;;;;1.02;0.68;;;;;;;13.91;100.00;99642.41;5179549;28;20071;-79
2022/12/31 08:55:11;;;;;;;0.88;0.40;;;;;;;13.96;100.00;99645.56;5170142;28;20507;-78
2022/12/31 08:58:16;;;;;;;1.85;0.40;;;;;;;14.01;100.00;99659.25;5192723;28;20076;-78
2022/12/31 09:00:52;;;;;;;1.38;0.30;;;;;;;14.10;100.00;99664.75;5182504;28;20041;-79
2022/12/31 09:03:22;;;;;;;1.33;0.50;;;;;;;14.19;100.00;99681.75;5182273;28;20050;-79
2022/12/31 09:06:09;;;;;;;1.73;0.40;;;;;;;14.12;100.00;99690.94;5175462;28;20042;-78
2022/12/31 09:08:45;;;;;;;2.15;0.70;;;;;;;14.11;100.00;99690.09;5192021;28;20026;-79
2022/12/31 09:11:18;;;;;;;;;;;;;;;14.13;100.00;99693.50;5187016;28;20133;-79
2022/12/31 09:14:44;;;;;;;2.15;1.13;;;;;;;14.25;100.00;99695.34;5181882;28;19920;-79
2022/12/31 09:17:27;;;;;;;6.82;1.40;;;;;;;14.24;100.00;99704.16;5086065;29;20044;-79
2022/12/31 09:19:58;;;;;;;2.88;1.02;;;;;;;14.28;100.00;99702.19;5078695;29;20228;-76
2022/12/31 09:22:28;;;;;;;3.80;1.20;;;;;;;14.20;100.00;99714.97;5154965;28;20523;-79
2022/12/31 09:24:59;;;;;;;3.20;1.00;;;;;;;14.12;100.00;99714.59;5165574;28;20187;-78
2022/12/31 09:27:41;;;;;;;2.80;1.17;;;;;;;13.95;100.00;99720.91;5188420;28;20021;-78
2022/12/31 09:30:15;;;;;;;0.93;0.52;;;;;;;13.85;100.00;99721.56;5179749;28;20105;-79
2022/12/31 09:33:05;;;;;;;1.08;0.60;;;;;;;13.69;100.00;99731.34;5182515;28;20431;-79
2022/12/31 09:35:45;;;;;;;2.50;0.50;;;;;;;13.64;100.00;99730.78;5191452;28;20060;-79
2022/12/31 09:38:27;;;;;;;1.20;0.70;;;;;;;13.65;100.00;99740.34;5186297;28;20030;-80
2022/12/31 09:41:47;;;;;;;1.55;0.60;;;;;;;13.69;100.00;99736.59;5180507;28;20411;-80
2022/12/31 09:44:47;;;;;;;0.93;0.60;;;;;;;13.82;100.00;99733.13;5178188;28;20224;-78
2022/12/31 09:47:55;;;;;;;2.95;0.60;;;;;;;13.85;100.00;99735.56;5185064;28;20022;-77
2022/12/31 09:50:55;;;;;;;3.20;0.68;;;;;;;13.85;100.00;99739.97;5179771;28;20480;-79
2022/12/31 09:54:03;;;;;;;0.80;0.30;;;;;;;13.94;100.00;99731.53;5161037;28;20052;-79
2022/12/31 09:56:55;;;;;;;1.55;0.40;;;;;;;13.91;100.00;99724.66;5188649;28;20021;-78
2022/12/31 09:59:47;;;;;;;2.05;0.35;;;;;;;14.10;100.00;99717.31;5184483;28;20602;-78
2022/12/31 10:02:39;;;;;;;2.88;0.50;;;;;;;14.17;100.00;99716.03;5179876;28;20038;-78
2022/12/31 10:05:19;;;;;;;0.85;0.30;;;;;;;14.17;100.00;99700.25;5188537;28;20088;-77
2022/12/31 10:08:14;;;;;;;0.93;0.25;;;;;;;14.30;100.00;99706.44;5187699;28;20056;-78
2022/12/31 10:10:56;;;;;;;1.63;0.28;;;;;;;14.35;100.00;99703.47;5186841;28;20029;-78
2022/12/31 10:13:45;;;;;;;1.33;0.30;;;;;;;14.26;100.00;99698.84;5184797;28;20298;-79
2022/12/31 10:16:30;;;;;;;2.13;0.40;;;;;;;14.31;100.00;99702.00;5184347;28;20029;-78
2022/12/31 10:19:26;;;;;;;1.33;0.30;;;;;;;14.32;100.00;99703.69;5188166;28;20026;-79
2022/12/31 10:22:21;;;;;;;0.77;0.40;;;;;;;14.31;100.00;99697.59;5179250;28;20281;-78
2022/12/31 10:24:57;;;;;;;3.25;0.50;;;;;;;14.31;100.00;99699.38;5182736;28;20026;-79
2022/12/31 10:27:52;;;;;;;2.00;0.40;;;;;;;14.48;100.00;99699.97;5184273;28;20524;-78
2022/12/31 10:30:23;;;;;;;1.48;0.40;;;;;;;14.64;100.00;99703.28;5185432;28;20040;-78
2022/12/31 10:33:07;;;;;;;2.47;0.30;;;;;;;14.74;100.00;99693.81;5169596;28;20039;-78
2022/12/31 10:36:06;;;;;;;0.80;0.30;;;;;;;14.90;100.00;99686.59;5191052;28;20036;-77
2022/12/31 10:39:17;;;;;;;0.93;0.28;;;;;;;15.05;100.00;99691.66;5191993;28;20418;-78
2022/12/31 10:42:33;;;;;;;1.17;0.32;;;;;;;15.08;100.00;99694.09;5178793;28;20036;-77
2022/12/31 10:45:22;;;;;;;2.60;0.40;;;;;;;15.12;100.00;99689.47;5095633;29;20027;-77
2022/12/31 10:48:07;;;;;;;1.20;0.40;;;;;;;15.17;100.00;99690.00;5187932;28;20033;-78
2022/12/31 10:50:44;;;;;;;0.50;0.20;;;;;;;15.10;100.00;99694.00;5188547;28;20037;-80
2022/12/31 10:53:34;;;;;;;3.30;0.70;;;;;;;15.08;100.00;99698.50;5179153;28;20294;-77
2022/12/31 10:56:22;;;;;;;2.15;0.65;;;;;;;15.08;100.00;99688.00;5195487;28;20034;-77
2022/12/31 10:59:11;;;;;;;2.38;0.40;;;;;;;15.15;100.00;99687.47;5186061;28;20022;-78
2022/12/31 11:01:58;;;;;;;1.95;0.40;;;;;;;15.04;100.00;99691.78;5176095;28;20522;-77
2022/12/31 11:05:12;;;;;;;2.28;0.40;;;;;;;14.96;100.00;99692.31;5187179;28;20029;-78
2022/12/31 11:07:53;;;;;;;2.30;0.38;;;;;;;14.96;100.00;99689.66;5108517;28;20038;-79
2022/12/31 11:10:41;;;;;;;2.72;0.77;;;;;;;15.00;100.00;99687.69;5175288;28;20392;-78
2022/12/31 11:13:46;;;;;;;3.10;0.63;;;;;;;15.12;100.00;99695.59;5177734;28;20048;-78
2022/12/31 11:16:32;;;;;;;4.25;1.27;;;;;;;15.24;100.00;99688.63;5179590;28;20520;-78
2022/12/31 11:19:02;;;;;;;;;;;;;;;15.31;100.00;99682.88;5183444;28;20030;-79
2022/12/31 11:21:35;;;;;;;0.73;0.40;;;;;;;15.34;100.00;99698.47;5179582;28;20098;-78
2022/12/31 11:24:25;;;;;;;4.00;0.70;;;;;;;15.26;100.00;99692.84;5171163;28;20033;-77
2022/12/31 11:27:06;;;;;;;0.88;0.50;;;;;;;15.32;100.00;99705.63;5162715;28;20599;-78
2022/12/31 11:29:40;;;;;;;1.17;0.60;;;;;;;15.40;100.00;99694.56;5180042;28;20033;-77
2022/12/31 11:32:22;;;;;;;3.22;0.50;;;;;;;15.45;100.00;99695.06;5177806;28;20118;-78
2022/12/31 11:35:14;;;;;;;1.40;0.47;;;;;;;15.44;100.00;99711.81;5185013;28;20045;-78
2022/12/31 11:37:48;;;;;;;3.25;0.60;;;;;;;15.43;100.00;99695.19;5187868;28;20507;-78
2022/12/31 11:40:30;;;;;;;3.78;0.75;;;;;;;15.54;100.00;99695.28;5201401;28;20382;-77
2022/12/31 11:43:15;;;;;;;2.70;0.50;;;;;;;15.60;100.00;99700.13;5183380;28;20335;-77
2022/12/31 11:45:58;;;;;;;1.25;0.50;;;;;;;15.74;100.00;99697.34;5170932;28;20025;-77
2022/12/31 11:48:56;;;;;;;5.07;1.23;;;;;;;15.79;100.00;99705.81;5192557;28;20117;-77
2022/12/31 11:51:36;;;;;;;4.47;1.20;;;;;;;15.96;100.00;99687.00;5190253;28;20037;-77
2022/12/31 11:54:28;;;;;;;3.85;1.08;;;;;;;16.25;100.00;99693.63;5190065;28;20022;-77
2022/12/31 11:57:10;;;;;;;3.20;0.80;;;;;;;16.27;100.00;99699.66;5169506;28;20037;-78
2022/12/31 11:59:41;;;;;;;3.05;0.80;;;;;;;16.30;100.00;99703.84;5188087;28;20034;-76
2022/12/31 12:02:22;;;;;;;7.35;0.75;;;;;;;16.26;100.00;99705.03;5181345;28;20030;-77
2022/12/31 12:04:55;;;;;;;1.55;0.60;;;;;;;16.28;100.00;99733.00;5178408;28;20486;-76
2022/12/31 12:07:27;;;;;;;1.58;0.40;;;;;;;16.36;100.00;99727.19;5182146;28;20033;-78
2022/12/31 12:10:02;;;;;;;2.28;0.47;;;;;;;16.32;100.00;99730.94;5193583;28;20061;-78
2022/12/31 12:12:42;;;;;;;0.90;0.40;;;;;;;16.46;100.00;99739.59;5187015;28;20047;-76
2022/12/31 12:15:20;;;;;;;0.70;0.30;;;;;;;16.57;100.00;99746.72;5183983;28;20479;-78
2022/12/31 12:18:07;;;;;;;1.98;0.50;;;;;;;16.55;100.00;99760.03;5187449;28;20104;-77
2022/12/31 12:20:39;;;;;;;1.92;0.50;;;;;;;16.53;100.00;99753.19;5167934;28;20364;-77
2022/12/31 12:23:16;;;;;;;3.17;0.70;;;;;;;16.62;100.00;99748.09;5186573;28;20076;-77
2022/12/31 12:25:46;;;;;;;1.35;0.47;;;;;;;16.60;100.00;99742.09;5181410;28;20034;-78